Middletown, Pennsylvania
Current Conditions -  °F | °C
As of 8:56 AM on Monday 26 Jan 2015 (Local Time) from KMDT Reporting Station
Light Snow Light Snow  
Wind Chill: 16°   Ceiling: 1400
Heat Index: 24°   Visibility: 9mi
Dew Point: 19°   Wind: 7mph
Humidity: 81%   Direction: 70°ENE
Pressure: 29.88"   Gusts: NA
Location:  40.2°N, 76.73°W
Report Text: KMDT 261356Z 07006KT 9SM -SN OVC014 M04/M07 A2988 RMK AO2 SLP121 P0000 T10441072
Loading
Personal Weather Stations






























Interactive Weather Map New forecast layout! Learn more

10-Day Weather Forecast

Advertisements
Track Severe Weather on mobile